sensor_id;sensor_type;location;lat;lon;timestamp;P1;durP1;ratioP1;P2;durP2;ratioP2
73841;SDS011;62184;52.006;5.924;2023-11-21T00:01:32;20.95;;;19.85;;
73841;SDS011;62184;52.006;5.924;2023-11-21T00:04:01;22.05;;;20.95;;
73841;SDS011;62184;52.006;5.924;2023-11-21T00:06:27;22.23;;;21.13;;
73841;SDS011;62184;52.006;5.924;2023-11-21T00:08:54;21.83;;;20.73;;
73841;SDS011;62184;52.006;5.924;2023-11-21T00:11:20;23.08;;;21.88;;
73841;SDS011;62184;52.006;5.924;2023-11-21T00:13:47;22.42;;;21.33;;
73841;SDS011;62184;52.006;5.924;2023-11-21T00:16:13;22.40;;;21.20;;
73841;SDS011;62184;52.006;5.924;2023-11-21T00:18:39;22.05;;;20.95;;
73841;SDS011;62184;52.006;5.924;2023-11-21T00:21:08;22.38;;;21.27;;
73841;SDS011;62184;52.006;5.924;2023-11-21T00:23:35;21.33;;;20.23;;
73841;SDS011;62184;52.006;5.924;2023-11-21T00:26:01;22.52;;;21.42;;
73841;SDS011;62184;52.006;5.924;2023-11-21T00:28:28;22.23;;;21.13;;
73841;SDS011;62184;52.006;5.924;2023-11-21T00:30:54;22.98;;;21.77;;
73841;SDS011;62184;52.006;5.924;2023-11-21T00:33:20;21.20;;;20.10;;
73841;SDS011;62184;52.006;5.924;2023-11-21T00:35:47;22.25;;;21.15;;
73841;SDS011;62184;52.006;5.924;2023-11-21T00:38:16;22.13;;;21.02;;
73841;SDS011;62184;52.006;5.924;2023-11-21T00:40:42;22.00;;;20.90;;
73841;SDS011;62184;52.006;5.924;2023-11-21T00:43:09;22.50;;;21.40;;
73841;SDS011;62184;52.006;5.924;2023-11-21T00:45:35;22.63;;;21.52;;
73841;SDS011;62184;52.006;5.924;2023-11-21T00:48:02;22.58;;;21.42;;
73841;SDS011;62184;52.006;5.924;2023-11-21T00:50:29;21.45;;;20.35;;
73841;SDS011;62184;52.006;5.924;2023-11-21T00:52:55;20.02;;;18.92;;
73841;SDS011;62184;52.006;5.924;2023-11-21T00:55:24;20.20;;;19.10;;
73841;SDS011;62184;52.006;5.924;2023-11-21T00:57:51;20.30;;;19.20;;
73841;SDS011;62184;52.006;5.924;2023-11-21T01:00:17;20.50;;;19.40;;
73841;SDS011;62184;52.006;5.924;2023-11-21T01:02:44;20.73;;;19.63;;
73841;SDS011;62184;52.006;5.924;2023-11-21T01:05:10;20.33;;;19.23;;
73841;SDS011;62184;52.006;5.924;2023-11-21T01:07:37;20.70;;;19.60;;
73841;SDS011;62184;52.006;5.924;2023-11-21T01:10:03;20.67;;;19.58;;
73841;SDS011;62184;52.006;5.924;2023-11-21T01:12:33;21.33;;;20.23;;
73841;SDS011;62184;52.006;5.924;2023-11-21T01:15:00;20.60;;;19.50;;
73841;SDS011;62184;52.006;5.924;2023-11-21T01:17:26;20.95;;;19.85;;
73841;SDS011;62184;52.006;5.924;2023-11-21T01:19:53;21.17;;;20.08;;
73841;SDS011;62184;52.006;5.924;2023-11-21T01:22:19;20.65;;;19.50;;
73841;SDS011;62184;52.006;5.924;2023-11-21T01:24:46;21.33;;;20.17;;
73841;SDS011;62184;52.006;5.924;2023-11-21T01:27:12;20.80;;;19.70;;
73841;SDS011;62184;52.006;5.924;2023-11-21T01:29:41;21.70;;;20.50;;
73841;SDS011;62184;52.006;5.924;2023-11-21T01:32:07;21.13;;;20.02;;
73841;SDS011;62184;52.006;5.924;2023-11-21T01:34:34;21.10;;;20.00;;
73841;SDS011;62184;52.006;5.924;2023-11-21T01:37:00;21.52;;;20.33;;
73841;SDS011;62184;52.006;5.924;2023-11-21T01:39:27;21.73;;;20.52;;
73841;SDS011;62184;52.006;5.924;2023-11-21T01:41:54;20.58;;;19.48;;
73841;SDS011;62184;52.006;5.924;2023-11-21T01:44:20;20.40;;;19.30;;
73841;SDS011;62184;52.006;5.924;2023-11-21T01:46:49;21.05;;;19.95;;
73841;SDS011;62184;52.006;5.924;2023-11-21T01:49:17;21.80;;;20.60;;
73841;SDS011;62184;52.006;5.924;2023-11-21T01:51:44;21.15;;;20.05;;
73841;SDS011;62184;52.006;5.924;2023-11-21T01:54:15;21.30;;;20.20;;
73841;SDS011;62184;52.006;5.924;2023-11-21T01:56:43;21.30;;;20.20;;
73841;SDS011;62184;52.006;5.924;2023-11-21T01:59:12;20.57;;;19.47;;
73841;SDS011;62184;52.006;5.924;2023-11-21T02:01:44;20.90;;;19.80;;
73841;SDS011;62184;52.006;5.924;2023-11-21T02:04:13;20.50;;;19.40;;
73841;SDS011;62184;52.006;5.924;2023-11-21T02:06:40;22.00;;;20.80;;
73841;SDS011;62184;52.006;5.924;2023-11-21T02:09:06;20.27;;;19.17;;
73841;SDS011;62184;52.006;5.924;2023-11-21T02:11:32;20.33;;;19.23;;
73841;SDS011;62184;52.006;5.924;2023-11-21T02:13:59;21.30;;;20.20;;
73841;SDS011;62184;52.006;5.924;2023-11-21T02:16:25;21.23;;;20.13;;
73841;SDS011;62184;52.006;5.924;2023-11-21T02:18:53;20.95;;;19.85;;
73841;SDS011;62184;52.006;5.924;2023-11-21T02:21:22;21.63;;;20.52;;
73841;SDS011;62184;52.006;5.924;2023-11-21T02:23:53;19.30;;;18.30;;
73841;SDS011;62184;52.006;5.924;2023-11-21T02:26:19;21.08;;;19.98;;
73841;SDS011;62184;52.006;5.924;2023-11-21T02:28:45;21.30;;;20.20;;
73841;SDS011;62184;52.006;5.924;2023-11-21T02:31:12;21.50;;;20.40;;
73841;SDS011;62184;52.006;5.924;2023-11-21T02:33:38;21.27;;;20.17;;
73841;SDS011;62184;52.006;5.924;2023-11-21T02:36:05;20.63;;;19.52;;
73841;SDS011;62184;52.006;5.924;2023-11-21T02:38:32;20.75;;;19.65;;
73841;SDS011;62184;52.006;5.924;2023-11-21T02:41:01;20.48;;;19.38;;
73841;SDS011;62184;52.006;5.924;2023-11-21T02:43:27;19.40;;;18.40;;
73841;SDS011;62184;52.006;5.924;2023-11-21T02:45:54;19.70;;;18.63;;
73841;SDS011;62184;52.006;5.924;2023-11-21T02:48:20;19.90;;;18.80;;
73841;SDS011;62184;52.006;5.924;2023-11-21T02:50:46;19.85;;;18.75;;
73841;SDS011;62184;52.006;5.924;2023-11-21T02:53:13;19.90;;;18.80;;
73841;SDS011;62184;52.006;5.924;2023-11-21T02:55:39;20.13;;;19.02;;
73841;SDS011;62184;52.006;5.924;2023-11-21T02:58:08;20.65;;;19.55;;
73841;SDS011;62184;52.006;5.924;2023-11-21T03:00:34;21.60;;;20.50;;
73841;SDS011;62184;52.006;5.924;2023-11-21T03:03:01;20.67;;;19.58;;
73841;SDS011;62184;52.006;5.924;2023-11-21T03:05:27;19.75;;;18.75;;
73841;SDS011;62184;52.006;5.924;2023-11-21T03:07:54;20.67;;;19.58;;
73841;SDS011;62184;52.006;5.924;2023-11-21T03:10:20;19.83;;;18.73;;
73841;SDS011;62184;52.006;5.924;2023-11-21T03:12:47;20.45;;;19.35;;
73841;SDS011;62184;52.006;5.924;2023-11-21T03:15:16;19.80;;;18.70;;
73841;SDS011;62184;52.006;5.924;2023-11-21T03:17:42;20.52;;;19.42;;
73841;SDS011;62184;52.006;5.924;2023-11-21T03:20:09;18.98;;;17.98;;
73841;SDS011;62184;52.006;5.924;2023-11-21T03:22:36;20.50;;;19.40;;
73841;SDS011;62184;52.006;5.924;2023-11-21T03:25:03;19.73;;;18.67;;
73841;SDS011;62184;52.006;5.924;2023-11-21T03:27:31;20.50;;;19.40;;
73841;SDS011;62184;52.006;5.924;2023-11-21T03:29:57;20.90;;;19.80;;
73841;SDS011;62184;52.006;5.924;2023-11-21T03:32:26;20.00;;;18.90;;
73841;SDS011;62184;52.006;5.924;2023-11-21T03:34:53;21.00;;;19.90;;
73841;SDS011;62184;52.006;5.924;2023-11-21T03:37:21;20.52;;;19.42;;
73841;SDS011;62184;52.006;5.924;2023-11-21T03:39:48;19.90;;;18.80;;
73841;SDS011;62184;52.006;5.924;2023-11-21T03:42:14;19.63;;;18.63;;
73841;SDS011;62184;52.006;5.924;2023-11-21T03:44:41;19.40;;;18.40;;
73841;SDS011;62184;52.006;5.924;2023-11-21T03:47:07;19.30;;;18.30;;
73841;SDS011;62184;52.006;5.924;2023-11-21T03:49:36;19.17;;;18.17;;
73841;SDS011;62184;52.006;5.924;2023-11-21T03:52:04;19.38;;;18.38;;
73841;SDS011;62184;52.006;5.924;2023-11-21T03:54:31;19.38;;;18.38;;
73841;SDS011;62184;52.006;5.924;2023-11-21T03:56:57;18.65;;;17.65;;
73841;SDS011;62184;52.006;5.924;2023-11-21T03:59:24;19.75;;;18.65;;
73841;SDS011;62184;52.006;5.924;2023-11-21T04:01:50;19.92;;;18.83;;
73841;SDS011;62184;52.006;5.924;2023-11-21T04:04:17;20.47;;;19.37;;
73841;SDS011;62184;52.006;5.924;2023-11-21T04:06:46;21.37;;;20.27;;
73841;SDS011;62184;52.006;5.924;2023-11-21T04:09:12;20.98;;;19.88;;
73841;SDS011;62184;52.006;5.924;2023-11-21T04:11:38;20.55;;;19.45;;
73841;SDS011;62184;52.006;5.924;2023-11-21T04:14:05;19.83;;;18.73;;
73841;SDS011;62184;52.006;5.924;2023-11-21T04:16:31;20.13;;;19.02;;
73841;SDS011;62184;52.006;5.924;2023-11-21T04:18:58;20.07;;;18.97;;
73841;SDS011;62184;52.006;5.924;2023-11-21T04:21:24;20.37;;;19.27;;
73841;SDS011;62184;52.006;5.924;2023-11-21T04:23:53;21.20;;;20.10;;
73841;SDS011;62184;52.006;5.924;2023-11-21T04:26:19;18.50;;;17.50;;
73841;SDS011;62184;52.006;5.924;2023-11-21T04:28:46;20.00;;;18.90;;
73841;SDS011;62184;52.006;5.924;2023-11-21T04:31:12;19.52;;;18.52;;
73841;SDS011;62184;52.006;5.924;2023-11-21T04:33:39;21.42;;;20.33;;
73841;SDS011;62184;52.006;5.924;2023-11-21T04:36:05;20.90;;;19.80;;
73841;SDS011;62184;52.006;5.924;2023-11-21T04:38:33;20.75;;;19.65;;
73841;SDS011;62184;52.006;5.924;2023-11-21T04:41:02;20.90;;;19.80;;
73841;SDS011;62184;52.006;5.924;2023-11-21T04:43:28;20.73;;;19.63;;
73841;SDS011;62184;52.006;5.924;2023-11-21T04:45:55;20.85;;;19.75;;
73841;SDS011;62184;52.006;5.924;2023-11-21T04:48:21;20.33;;;19.30;;
73841;SDS011;62184;52.006;5.924;2023-11-21T04:50:47;20.30;;;19.30;;
73841;SDS011;62184;52.006;5.924;2023-11-21T04:53:14;20.75;;;19.65;;
73841;SDS011;62184;52.006;5.924;2023-11-21T04:55:40;20.30;;;19.30;;
73841;SDS011;62184;52.006;5.924;2023-11-21T04:58:09;19.35;;;18.35;;
73841;SDS011;62184;52.006;5.924;2023-11-21T05:00:36;20.30;;;19.30;;
73841;SDS011;62184;52.006;5.924;2023-11-21T05:03:02;19.90;;;18.90;;
73841;SDS011;62184;52.006;5.924;2023-11-21T05:05:29;20.02;;;19.02;;
73841;SDS011;62184;52.006;5.924;2023-11-21T05:07:56;22.27;;;21.17;;
73841;SDS011;62184;52.006;5.924;2023-11-21T05:10:22;22.65;;;21.55;;
73841;SDS011;62184;52.006;5.924;2023-11-21T05:12:49;20.42;;;19.38;;
73841;SDS011;62184;52.006;5.924;2023-11-21T05:15:18;22.00;;;20.90;;
73841;SDS011;62184;52.006;5.924;2023-11-21T05:17:44;22.90;;;21.70;;
73841;SDS011;62184;52.006;5.924;2023-11-21T05:20:11;24.80;;;23.60;;
73841;SDS011;62184;52.006;5.924;2023-11-21T05:22:40;24.13;;;22.93;;
73841;SDS011;62184;52.006;5.924;2023-11-21T05:25:06;23.38;;;22.17;;
73841;SDS011;62184;52.006;5.924;2023-11-21T05:27:34;24.27;;;22.98;;
73841;SDS011;62184;52.006;5.924;2023-11-21T05:30:01;22.30;;;21.10;;
73841;SDS011;62184;52.006;5.924;2023-11-21T05:32:30;22.27;;;21.13;;
73841;SDS011;62184;52.006;5.924;2023-11-21T05:34:56;21.73;;;20.63;;
73841;SDS011;62184;52.006;5.924;2023-11-21T05:37:23;24.40;;;23.10;;
73841;SDS011;62184;52.006;5.924;2023-11-21T05:39:49;25.10;;;23.80;;
73841;SDS011;62184;52.006;5.924;2023-11-21T05:42:15;22.27;;;21.08;;
73841;SDS011;62184;52.006;5.924;2023-11-21T05:44:42;21.98;;;20.83;;
73841;SDS011;62184;52.006;5.924;2023-11-21T05:47:08;21.98;;;20.77;;
73841;SDS011;62184;52.006;5.924;2023-11-21T05:49:38;21.10;;;20.00;;
73841;SDS011;62184;52.006;5.924;2023-11-21T05:52:04;21.30;;;20.20;;
73841;SDS011;62184;52.006;5.924;2023-11-21T05:54:31;21.33;;;20.23;;
73841;SDS011;62184;52.006;5.924;2023-11-21T05:56:57;22.10;;;21.00;;
73841;SDS011;62184;52.006;5.924;2023-11-21T05:59:24;20.77;;;19.67;;
73841;SDS011;62184;52.006;5.924;2023-11-21T06:01:51;19.60;;;18.60;;
73841;SDS011;62184;52.006;5.924;2023-11-21T06:04:17;21.03;;;19.93;;
73841;SDS011;62184;52.006;5.924;2023-11-21T06:06:46;20.58;;;19.48;;
73841;SDS011;62184;52.006;5.924;2023-11-21T06:09:13;19.58;;;18.58;;
73841;SDS011;62184;52.006;5.924;2023-11-21T06:11:39;19.15;;;18.15;;
73841;SDS011;62184;52.006;5.924;2023-11-21T06:14:05;18.95;;;17.95;;
73841;SDS011;62184;52.006;5.924;2023-11-21T06:16:32;19.80;;;18.70;;
73841;SDS011;62184;52.006;5.924;2023-11-21T06:18:58;20.80;;;19.70;;
73841;SDS011;62184;52.006;5.924;2023-11-21T06:21:24;19.87;;;18.77;;
73841;SDS011;62184;52.006;5.924;2023-11-21T06:23:53;18.60;;;17.60;;
73841;SDS011;62184;52.006;5.924;2023-11-21T06:26:20;18.90;;;17.90;;
73841;SDS011;62184;52.006;5.924;2023-11-21T06:28:46;20.20;;;19.10;;
73841;SDS011;62184;52.006;5.924;2023-11-21T06:31:13;20.27;;;19.17;;
73841;SDS011;62184;52.006;5.924;2023-11-21T06:33:39;19.30;;;18.20;;
73841;SDS011;62184;52.006;5.924;2023-11-21T06:36:06;18.93;;;17.93;;
73841;SDS011;62184;52.006;5.924;2023-11-21T06:38:34;19.58;;;18.58;;
73841;SDS011;62184;52.006;5.924;2023-11-21T06:41:03;20.00;;;18.90;;
73841;SDS011;62184;52.006;5.924;2023-11-21T06:43:31;21.38;;;20.27;;
73841;SDS011;62184;52.006;5.924;2023-11-21T06:45:58;19.57;;;18.47;;
73841;SDS011;62184;52.006;5.924;2023-11-21T06:48:24;20.60;;;19.50;;
73841;SDS011;62184;52.006;5.924;2023-11-21T06:50:51;20.33;;;19.23;;
73841;SDS011;62184;52.006;5.924;2023-11-21T06:53:17;21.67;;;20.52;;
73841;SDS011;62184;52.006;5.924;2023-11-21T06:55:44;19.63;;;18.52;;
73841;SDS011;62184;52.006;5.924;2023-11-21T06:58:13;19.33;;;18.30;;
73841;SDS011;62184;52.006;5.924;2023-11-21T07:00:39;19.85;;;18.75;;
73841;SDS011;62184;52.006;5.924;2023-11-21T07:03:05;19.65;;;18.55;;
73841;SDS011;62184;52.006;5.924;2023-11-21T07:05:32;21.35;;;20.25;;
73841;SDS011;62184;52.006;5.924;2023-11-21T07:07:58;19.75;;;18.67;;
73841;SDS011;62184;52.006;5.924;2023-11-21T07:10:25;19.70;;;18.60;;
73841;SDS011;62184;52.006;5.924;2023-11-21T07:12:51;19.95;;;18.85;;
73841;SDS011;62184;52.006;5.924;2023-11-21T07:15:20;19.85;;;18.75;;
73841;SDS011;62184;52.006;5.924;2023-11-21T07:17:46;20.13;;;19.02;;
73841;SDS011;62184;52.006;5.924;2023-11-21T07:20:13;19.10;;;18.10;;
73841;SDS011;62184;52.006;5.924;2023-11-21T07:22:39;21.75;;;20.60;;
73841;SDS011;62184;52.006;5.924;2023-11-21T07:25:06;22.48;;;21.27;;
73841;SDS011;62184;52.006;5.924;2023-11-21T07:27:33;20.85;;;19.75;;
73841;SDS011;62184;52.006;5.924;2023-11-21T07:29:59;20.23;;;19.13;;
73841;SDS011;62184;52.006;5.924;2023-11-21T07:32:28;20.73;;;19.63;;
73841;SDS011;62184;52.006;5.924;2023-11-21T07:34:55;19.42;;;18.35;;
73841;SDS011;62184;52.006;5.924;2023-11-21T07:37:21;18.63;;;17.63;;
73841;SDS011;62184;52.006;5.924;2023-11-21T07:39:48;18.23;;;17.23;;
73841;SDS011;62184;52.006;5.924;2023-11-21T07:42:14;18.02;;;17.02;;
73841;SDS011;62184;52.006;5.924;2023-11-21T07:44:40;18.63;;;17.63;;
73841;SDS011;62184;52.006;5.924;2023-11-21T07:47:07;18.38;;;17.38;;
73841;SDS011;62184;52.006;5.924;2023-11-21T07:49:36;18.73;;;17.63;;
73841;SDS011;62184;52.006;5.924;2023-11-21T07:52:02;18.40;;;17.40;;
73841;SDS011;62184;52.006;5.924;2023-11-21T07:54:29;19.00;;;17.93;;
73841;SDS011;62184;52.006;5.924;2023-11-21T07:56:55;18.80;;;17.80;;
73841;SDS011;62184;52.006;5.924;2023-11-21T07:59:22;17.88;;;16.88;;
73841;SDS011;62184;52.006;5.924;2023-11-21T08:01:48;18.50;;;17.50;;
73841;SDS011;62184;52.006;5.924;2023-11-21T08:04:15;18.10;;;17.10;;
73841;SDS011;62184;52.006;5.924;2023-11-21T08:06:44;18.63;;;17.63;;
73841;SDS011;62184;52.006;5.924;2023-11-21T08:09:10;18.87;;;17.87;;
73841;SDS011;62184;52.006;5.924;2023-11-21T08:11:36;18.75;;;17.75;;
73841;SDS011;62184;52.006;5.924;2023-11-21T08:14:03;18.73;;;17.73;;
73841;SDS011;62184;52.006;5.924;2023-11-21T08:16:29;18.13;;;17.13;;
73841;SDS011;62184;52.006;5.924;2023-11-21T08:18:56;18.63;;;17.63;;
73841;SDS011;62184;52.006;5.924;2023-11-21T08:21:22;18.70;;;17.70;;
73841;SDS011;62184;52.006;5.924;2023-11-21T08:23:51;18.60;;;17.60;;
73841;SDS011;62184;52.006;5.924;2023-11-21T08:26:18;18.73;;;17.73;;
73841;SDS011;62184;52.006;5.924;2023-11-21T08:28:44;18.02;;;17.02;;
73841;SDS011;62184;52.006;5.924;2023-11-21T08:31:10;18.60;;;17.60;;
73841;SDS011;62184;52.006;5.924;2023-11-21T08:33:37;17.98;;;16.98;;
73841;SDS011;62184;52.006;5.924;2023-11-21T08:36:06;18.92;;;17.92;;
73841;SDS011;62184;52.006;5.924;2023-11-21T08:38:33;18.90;;;17.90;;
73841;SDS011;62184;52.006;5.924;2023-11-21T08:41:02;18.38;;;17.38;;
73841;SDS011;62184;52.006;5.924;2023-11-21T08:43:31;19.13;;;18.13;;
73841;SDS011;62184;52.006;5.924;2023-11-21T08:45:57;18.60;;;17.60;;
73841;SDS011;62184;52.006;5.924;2023-11-21T08:48:24;18.57;;;17.57;;
73841;SDS011;62184;52.006;5.924;2023-11-21T08:50:50;18.67;;;17.67;;
73841;SDS011;62184;52.006;5.924;2023-11-21T08:53:17;18.40;;;17.40;;
73841;SDS011;62184;52.006;5.924;2023-11-21T08:55:43;18.88;;;17.88;;
73841;SDS011;62184;52.006;5.924;2023-11-21T08:58:12;19.60;;;18.50;;
73841;SDS011;62184;52.006;5.924;2023-11-21T09:00:39;19.47;;;18.37;;
73841;SDS011;62184;52.006;5.924;2023-11-21T09:03:06;19.35;;;18.25;;
73841;SDS011;62184;52.006;5.924;2023-11-21T09:05:32;19.50;;;18.40;;
73841;SDS011;62184;52.006;5.924;2023-11-21T09:07:58;19.57;;;18.47;;
73841;SDS011;62184;52.006;5.924;2023-11-21T09:10:25;19.42;;;18.33;;
73841;SDS011;62184;52.006;5.924;2023-11-21T09:12:51;19.88;;;18.77;;
73841;SDS011;62184;52.006;5.924;2023-11-21T09:15:21;18.58;;;17.58;;
73841;SDS011;62184;52.006;5.924;2023-11-21T09:17:47;18.90;;;17.90;;
73841;SDS011;62184;52.006;5.924;2023-11-21T09:20:14;19.27;;;18.27;;
73841;SDS011;62184;52.006;5.924;2023-11-21T09:22:40;18.70;;;17.70;;
73841;SDS011;62184;52.006;5.924;2023-11-21T09:25:07;19.25;;;18.25;;
73841;SDS011;62184;52.006;5.924;2023-11-21T09:27:34;18.48;;;17.48;;
73841;SDS011;62184;52.006;5.924;2023-11-21T09:30:01;18.45;;;17.45;;
73841;SDS011;62184;52.006;5.924;2023-11-21T09:32:30;18.90;;;17.90;;
73841;SDS011;62184;52.006;5.924;2023-11-21T09:34:57;19.25;;;18.20;;
73841;SDS011;62184;52.006;5.924;2023-11-21T09:37:23;18.88;;;17.88;;
73841;SDS011;62184;52.006;5.924;2023-11-21T09:39:49;19.00;;;17.90;;
73841;SDS011;62184;52.006;5.924;2023-11-21T09:42:17;19.47;;;18.37;;
73841;SDS011;62184;52.006;5.924;2023-11-21T09:44:52;18.90;;;17.90;;
73841;SDS011;62184;52.006;5.924;2023-11-21T09:47:31;19.35;;;18.25;;
73841;SDS011;62184;52.006;5.924;2023-11-21T09:50:01;19.40;;;18.30;;
73841;SDS011;62184;52.006;5.924;2023-11-21T09:52:28;19.30;;;18.20;;
73841;SDS011;62184;52.006;5.924;2023-11-21T09:54:58;19.42;;;18.33;;
73841;SDS011;62184;52.006;5.924;2023-11-21T09:57:25;19.92;;;18.83;;
73841;SDS011;62184;52.006;5.924;2023-11-21T09:59:54;19.80;;;18.70;;
73841;SDS011;62184;52.006;5.924;2023-11-21T10:02:22;18.80;;;17.70;;
73841;SDS011;62184;52.006;5.924;2023-11-21T10:04:54;18.98;;;17.88;;
73841;SDS011;62184;52.006;5.924;2023-11-21T10:07:21;18.23;;;17.13;;
73841;SDS011;62184;52.006;5.924;2023-11-21T10:09:48;19.38;;;18.27;;
73841;SDS011;62184;52.006;5.924;2023-11-21T10:12:18;19.65;;;18.55;;
73841;SDS011;62184;52.006;5.924;2023-11-21T10:14:46;19.10;;;18.00;;
73841;SDS011;62184;52.006;5.924;2023-11-21T10:17:16;19.70;;;18.60;;
73841;SDS011;62184;52.006;5.924;2023-11-21T10:19:43;19.15;;;18.05;;
73841;SDS011;62184;52.006;5.924;2023-11-21T10:22:16;19.60;;;18.50;;
73841;SDS011;62184;52.006;5.924;2023-11-21T10:24:43;19.60;;;18.50;;
73841;SDS011;62184;52.006;5.924;2023-11-21T10:27:09;19.60;;;18.50;;
73841;SDS011;62184;52.006;5.924;2023-11-21T10:29:36;19.38;;;18.27;;
73841;SDS011;62184;52.006;5.924;2023-11-21T10:32:02;19.30;;;18.20;;
73841;SDS011;62184;52.006;5.924;2023-11-21T10:34:30;19.80;;;18.70;;
73841;SDS011;62184;52.006;5.924;2023-11-21T10:36:56;19.55;;;18.38;;
73841;SDS011;62184;52.006;5.924;2023-11-21T10:39:26;19.38;;;18.25;;
73841;SDS011;62184;52.006;5.924;2023-11-21T10:41:53;19.75;;;18.65;;
73841;SDS011;62184;52.006;5.924;2023-11-21T10:44:20;19.50;;;18.40;;
73841;SDS011;62184;52.006;5.924;2023-11-21T10:46:47;18.83;;;17.73;;
73841;SDS011;62184;52.006;5.924;2023-11-21T10:49:15;18.77;;;17.67;;
73841;SDS011;62184;52.006;5.924;2023-11-21T10:51:43;19.40;;;18.30;;
73841;SDS011;62184;52.006;5.924;2023-11-21T10:54:10;19.45;;;18.35;;
73841;SDS011;62184;52.006;5.924;2023-11-21T10:56:39;18.83;;;17.73;;
73841;SDS011;62184;52.006;5.924;2023-11-21T10:59:07;19.50;;;18.40;;
73841;SDS011;62184;52.006;5.924;2023-11-21T11:01:36;19.42;;;18.33;;
73841;SDS011;62184;52.006;5.924;2023-11-21T11:04:03;19.35;;;18.25;;
73841;SDS011;62184;52.006;5.924;2023-11-21T11:06:34;18.90;;;17.80;;
73841;SDS011;62184;52.006;5.924;2023-11-21T11:09:00;20.17;;;18.97;;
73841;SDS011;62184;52.006;5.924;2023-11-21T11:11:27;19.50;;;18.40;;
73841;SDS011;62184;52.006;5.924;2023-11-21T11:13:58;19.23;;;18.13;;
73841;SDS011;62184;52.006;5.924;2023-11-21T11:16:25;18.80;;;17.70;;
73841;SDS011;62184;52.006;5.924;2023-11-21T11:18:53;18.63;;;17.52;;
73841;SDS011;62184;52.006;5.924;2023-11-21T11:21:23;19.02;;;17.92;;
73841;SDS011;62184;52.006;5.924;2023-11-21T11:24:13;18.90;;;17.80;;
73841;SDS011;62184;52.006;5.924;2023-11-21T11:26:55;19.10;;;18.00;;
73841;SDS011;62184;52.006;5.924;2023-11-21T11:29:39;20.17;;;18.98;;
73841;SDS011;62184;52.006;5.924;2023-11-21T11:32:16;19.63;;;18.42;;
73841;SDS011;62184;52.006;5.924;2023-11-21T11:35:00;20.00;;;18.80;;
73841;SDS011;62184;52.006;5.924;2023-11-21T11:37:35;19.73;;;18.63;;
73841;SDS011;62184;52.006;5.924;2023-11-21T11:40:05;19.42;;;18.33;;
73841;SDS011;62184;52.006;5.924;2023-11-21T11:42:32;19.27;;;18.08;;
73841;SDS011;62184;52.006;5.924;2023-11-21T11:45:01;19.65;;;18.55;;
73841;SDS011;62184;52.006;5.924;2023-11-21T11:47:43;18.70;;;17.60;;
73841;SDS011;62184;52.006;5.924;2023-11-21T11:50:10;18.58;;;17.48;;
73841;SDS011;62184;52.006;5.924;2023-11-21T11:52:39;19.70;;;18.60;;
73841;SDS011;62184;52.006;5.924;2023-11-21T11:55:07;19.15;;;18.05;;
73841;SDS011;62184;52.006;5.924;2023-11-21T11:57:36;19.33;;;18.23;;
73841;SDS011;62184;52.006;5.924;2023-11-21T12:00:18;19.10;;;18.00;;
73841;SDS011;62184;52.006;5.924;2023-11-21T12:02:48;19.00;;;17.90;;
73841;SDS011;62184;52.006;5.924;2023-11-21T12:05:17;19.40;;;18.30;;
73841;SDS011;62184;52.006;5.924;2023-11-21T12:07:45;19.02;;;17.83;;
73841;SDS011;62184;52.006;5.924;2023-11-21T12:10:14;18.45;;;17.35;;
73841;SDS011;62184;52.006;5.924;2023-11-21T12:12:43;18.50;;;17.40;;
73841;SDS011;62184;52.006;5.924;2023-11-21T12:15:12;18.48;;;17.38;;
73841;SDS011;62184;52.006;5.924;2023-11-21T12:17:42;18.88;;;17.77;;
73841;SDS011;62184;52.006;5.924;2023-11-21T12:20:10;19.73;;;18.60;;
73841;SDS011;62184;52.006;5.924;2023-11-21T12:22:39;19.25;;;18.15;;
73841;SDS011;62184;52.006;5.924;2023-11-21T12:25:07;19.60;;;18.50;;
73841;SDS011;62184;52.006;5.924;2023-11-21T12:27:34;20.07;;;18.87;;
73841;SDS011;62184;52.006;5.924;2023-11-21T12:30:00;19.50;;;18.30;;
73841;SDS011;62184;52.006;5.924;2023-11-21T12:32:27;18.65;;;17.55;;
73841;SDS011;62184;52.006;5.924;2023-11-21T12:34:56;19.55;;;18.42;;
73841;SDS011;62184;52.006;5.924;2023-11-21T12:37:22;19.20;;;18.10;;
73841;SDS011;62184;52.006;5.924;2023-11-21T12:39:49;18.85;;;17.75;;
73841;SDS011;62184;52.006;5.924;2023-11-21T12:42:15;19.30;;;18.20;;
73841;SDS011;62184;52.006;5.924;2023-11-21T12:44:45;19.23;;;17.92;;
73841;SDS011;62184;52.006;5.924;2023-11-21T12:47:12;19.67;;;18.48;;
73841;SDS011;62184;52.006;5.924;2023-11-21T12:49:43;19.35;;;18.20;;
73841;SDS011;62184;52.006;5.924;2023-11-21T12:52:12;19.52;;;18.33;;
73841;SDS011;62184;52.006;5.924;2023-11-21T12:54:39;20.23;;;19.02;;
73841;SDS011;62184;52.006;5.924;2023-11-21T12:57:06;19.90;;;18.70;;
73841;SDS011;62184;52.006;5.924;2023-11-21T12:59:32;20.20;;;19.00;;
73841;SDS011;62184;52.006;5.924;2023-11-21T13:01:59;19.30;;;18.20;;
73841;SDS011;62184;52.006;5.924;2023-11-21T13:04:29;20.00;;;18.80;;
73841;SDS011;62184;52.006;5.924;2023-11-21T13:07:02;19.15;;;18.05;;
73841;SDS011;62184;52.006;5.924;2023-11-21T13:09:32;19.50;;;18.40;;
73841;SDS011;62184;52.006;5.924;2023-11-21T13:12:01;19.73;;;18.52;;
73841;SDS011;62184;52.006;5.924;2023-11-21T13:14:28;19.88;;;18.67;;
73841;SDS011;62184;52.006;5.924;2023-11-21T13:16:55;19.48;;;18.33;;
73841;SDS011;62184;52.006;5.924;2023-11-21T13:19:21;19.50;;;18.40;;
73841;SDS011;62184;52.006;5.924;2023-11-21T13:21:48;20.15;;;18.95;;
73841;SDS011;62184;52.006;5.924;2023-11-21T13:24:14;21.17;;;19.85;;
73841;SDS011;62184;52.006;5.924;2023-11-21T13:26:43;20.17;;;18.92;;
73841;SDS011;62184;52.006;5.924;2023-11-21T13:29:10;20.40;;;19.20;;
73841;SDS011;62184;52.006;5.924;2023-11-21T13:31:36;21.45;;;20.13;;
73841;SDS011;62184;52.006;5.924;2023-11-21T13:34:02;20.20;;;18.90;;
73841;SDS011;62184;52.006;5.924;2023-11-21T13:36:29;19.92;;;18.73;;
73841;SDS011;62184;52.006;5.924;2023-11-21T13:38:55;19.65;;;18.45;;
73841;SDS011;62184;52.006;5.924;2023-11-21T13:41:22;19.83;;;18.58;;
73841;SDS011;62184;52.006;5.924;2023-11-21T13:43:51;18.92;;;17.83;;
73841;SDS011;62184;52.006;5.924;2023-11-21T13:46:17;19.70;;;18.60;;
73841;SDS011;62184;52.006;5.924;2023-11-21T13:48:44;20.02;;;18.83;;
73841;SDS011;62184;52.006;5.924;2023-11-21T13:51:10;20.50;;;19.30;;
73841;SDS011;62184;52.006;5.924;2023-11-21T13:53:37;19.30;;;18.20;;
73841;SDS011;62184;52.006;5.924;2023-11-21T13:56:03;18.70;;;17.60;;
73841;SDS011;62184;52.006;5.924;2023-11-21T13:58:31;19.10;;;18.00;;
73841;SDS011;62184;52.006;5.924;2023-11-21T14:01:00;18.23;;;17.23;;
73841;SDS011;62184;52.006;5.924;2023-11-21T14:03:26;18.40;;;17.30;;
73841;SDS011;62184;52.006;5.924;2023-11-21T14:05:53;18.25;;;17.20;;
73841;SDS011;62184;52.006;5.924;2023-11-21T14:08:19;20.85;;;19.63;;
73841;SDS011;62184;52.006;5.924;2023-11-21T14:10:46;19.00;;;17.90;;
73841;SDS011;62184;52.006;5.924;2023-11-21T14:13:13;18.33;;;17.23;;
73841;SDS011;62184;52.006;5.924;2023-11-21T14:15:40;19.07;;;17.97;;
73841;SDS011;62184;52.006;5.924;2023-11-21T14:18:09;18.85;;;17.75;;
73841;SDS011;62184;52.006;5.924;2023-11-21T14:20:35;18.75;;;17.65;;
73841;SDS011;62184;52.006;5.924;2023-11-21T14:23:02;19.70;;;18.60;;